createdAt,value
2022-12-18T00:00:18.947Z,72.48
2022-12-18T00:03:08.061Z,72.59
2022-12-18T00:05:37.858Z,72.66
2022-12-18T00:08:09.582Z,72.28
2022-12-18T00:10:38.192Z,72.12
2022-12-18T00:13:09.882Z,72.09
2022-12-18T00:15:40.473Z,72.12
2022-12-18T00:18:09.284Z,72.22
2022-12-18T00:20:39.485Z,72.25
2022-12-18T00:23:08.621Z,71.81
2022-12-18T00:25:37.838Z,72.03
2022-12-18T00:28:06.849Z,71.96
2022-12-18T00:30:35.308Z,71.54
2022-12-18T00:33:03.884Z,71.17
2022-12-18T00:35:33.273Z,71.12
2022-12-18T00:38:01.797Z,71.56
2022-12-18T00:40:30.262Z,71.31
2022-12-18T00:42:58.857Z,70.97
2022-12-18T00:45:30.649Z,70.99
2022-12-18T00:47:59.290Z,71.50
2022-12-18T00:50:28.298Z,71.32
2022-12-18T00:52:56.781Z,71.20
2022-12-18T00:55:25.310Z,71.34
2022-12-18T00:57:53.829Z,71.16
2022-12-18T01:00:22.546Z,71.16
2022-12-18T01:02:51.091Z,71.03
2022-12-18T01:05:20.041Z,71.24
2022-12-18T01:07:48.531Z,71.48
2022-12-18T01:10:17.055Z,71.45
2022-12-18T01:12:45.600Z,71.47
2022-12-18T01:15:16.206Z,71.40
2022-12-18T01:17:45.035Z,71.40
2022-12-18T01:20:14.515Z,71.43
2022-12-18T01:22:43.271Z,71.75
2022-12-18T01:25:11.833Z,71.91
2022-12-18T01:27:40.236Z,71.79
2022-12-18T01:30:09.404Z,71.62
2022-12-18T01:32:37.874Z,71.60
2022-12-18T01:35:07.349Z,72.18
2022-12-18T01:37:35.877Z,72.15
2022-12-18T01:40:04.961Z,72.53
2022-12-18T01:42:33.441Z,72.18
2022-12-18T01:45:13.774Z,71.76
2022-12-18T01:47:49.338Z,71.68
2022-12-18T01:50:44.213Z,71.62
2022-12-18T01:53:20.238Z,71.62
2022-12-18T01:55:57.361Z,72.05
2022-12-18T01:58:44.817Z,71.91
2022-12-18T02:01:14.008Z,71.91
2022-12-18T02:03:44.912Z,71.23
2022-12-18T02:06:39.070Z,70.80
2022-12-18T02:09:16.404Z,70.80
2022-12-18T02:11:55.684Z,70.87
2022-12-18T02:14:36.549Z,71.10
2022-12-18T02:17:19.622Z,71.04
2022-12-18T02:20:17.650Z,71.24
2022-12-18T02:23:31.345Z,71.55
2022-12-18T02:26:11.660Z,71.53
2022-12-18T02:28:50.505Z,71.59
2022-12-18T02:31:25.916Z,71.90
2022-12-18T02:33:59.983Z,72.20
2022-12-18T02:36:30.900Z,73.04
2022-12-18T02:39:00.473Z,73.10
2022-12-18T02:41:31.109Z,73.73
2022-12-18T02:44:07.909Z,72.95
2022-12-18T02:46:38.912Z,73.35
2022-12-18T02:49:48.621Z,72.88
2022-12-18T02:52:47.288Z,72.73
2022-12-18T02:55:25.180Z,72.67
2022-12-18T02:58:32.730Z,72.77
2022-12-18T03:01:35.116Z,73.11
2022-12-18T03:04:41.011Z,73.43
2022-12-18T03:07:19.789Z,73.15
2022-12-18T03:09:54.337Z,72.81
2022-12-18T03:12:32.652Z,72.44
2022-12-18T03:15:18.825Z,71.87
2022-12-18T03:17:56.457Z,71.50
2022-12-18T03:20:30.445Z,70.79
2022-12-18T03:23:09.977Z,70.58
2022-12-18T03:25:44.222Z,70.83
2022-12-18T03:28:21.003Z,70.96
2022-12-18T03:30:57.586Z,71.00
2022-12-18T03:33:41.216Z,70.79
2022-12-18T03:36:10.134Z,70.54
2022-12-18T03:38:40.121Z,70.64
2022-12-18T03:41:42.113Z,70.98
2022-12-18T03:45:31.717Z,71.23
2022-12-18T03:48:11.034Z,71.31
2022-12-18T03:51:15.742Z,71.41
2022-12-18T03:54:01.518Z,71.72
2022-12-18T03:56:41.511Z,71.89
2022-12-18T03:59:16.272Z,71.83
2022-12-18T04:01:50.881Z,71.85
2022-12-18T04:04:21.014Z,72.02
2022-12-18T04:06:51.639Z,71.80
2022-12-18T04:09:22.088Z,72.09
2022-12-18T04:11:50.662Z,71.84
2022-12-18T04:14:19.174Z,71.59
2022-12-18T04:16:50.553Z,71.83
2022-12-18T04:19:19.998Z,71.36
2022-12-18T04:21:49.501Z,71.59
2022-12-18T04:24:18.164Z,71.72
2022-12-18T04:26:54.128Z,71.84
2022-12-18T04:29:28.580Z,71.36
2022-12-18T04:31:57.148Z,71.39
2022-12-18T04:34:25.849Z,71.13
2022-12-18T04:36:54.797Z,70.92
2022-12-18T04:39:23.587Z,71.43
2022-12-18T04:41:53.380Z,71.93
2022-12-18T04:44:21.866Z,71.51
2022-12-18T04:46:50.325Z,71.88
2022-12-18T04:49:18.853Z,71.75
2022-12-18T04:51:47.343Z,71.78
2022-12-18T04:54:15.917Z,71.68
2022-12-18T04:56:45.037Z,71.12
2022-12-18T04:59:13.471Z,70.74
2022-12-18T05:01:42.078Z,70.79
2022-12-18T05:04:10.956Z,70.65
2022-12-18T05:06:39.573Z,70.80
2022-12-18T05:09:08.050Z,70.76
2022-12-18T05:11:36.494Z,71.15
2022-12-18T05:14:04.963Z,71.08
2022-12-18T05:16:33.474Z,70.87
2022-12-18T05:19:02.026Z,71.30
2022-12-18T05:21:30.477Z,71.51
2022-12-18T05:23:58.979Z,71.57
2022-12-18T05:26:27.405Z,71.95
2022-12-18T05:28:55.955Z,71.91
2022-12-18T05:31:24.457Z,72.07
2022-12-18T05:33:52.906Z,71.71
2022-12-18T05:36:21.426Z,71.91
2022-12-18T05:38:50.305Z,71.97
2022-12-18T05:41:18.761Z,72.43
2022-12-18T05:43:47.266Z,72.54
2022-12-18T05:46:19.061Z,72.82
2022-12-18T05:48:48.037Z,72.96
2022-12-18T05:51:19.126Z,72.96
2022-12-18T05:53:48.443Z,72.92
2022-12-18T05:56:21.183Z,72.99
2022-12-18T05:58:54.466Z,73.12
2022-12-18T06:01:27.658Z,73.13
2022-12-18T06:03:57.008Z,73.08
2022-12-18T06:06:28.260Z,73.33
2022-12-18T06:08:57.965Z,73.54
2022-12-18T06:11:27.857Z,73.71
2022-12-18T06:13:59.324Z,73.76
2022-12-18T06:16:30.138Z,74.04
2022-12-18T06:19:01.761Z,73.75
2022-12-18T06:21:31.425Z,73.19
2022-12-18T06:24:01.345Z,73.22
2022-12-18T06:26:29.783Z,72.84
2022-12-18T06:28:58.318Z,72.78
2022-12-18T06:31:27.748Z,72.78
2022-12-18T06:33:56.275Z,72.77
2022-12-18T06:36:24.758Z,73.04
2022-12-18T06:38:53.279Z,73.13
2022-12-18T06:41:22.686Z,72.98
2022-12-18T06:43:53.561Z,72.90
2022-12-18T06:46:24.130Z,72.92
2022-12-18T06:48:52.648Z,72.98
2022-12-18T06:51:23.740Z,72.95
2022-12-18T06:53:52.588Z,72.87
2022-12-18T06:56:21.148Z,72.82
2022-12-18T06:58:50.998Z,72.08
2022-12-18T07:01:20.032Z,71.52
2022-12-18T07:03:54.242Z,71.23
2022-12-18T07:06:26.364Z,71.53
2022-12-18T07:08:55.621Z,71.72
2022-12-18T07:11:24.304Z,71.84
2022-12-18T07:13:54.638Z,71.85
2022-12-18T07:16:25.624Z,72.13
2022-12-18T07:18:56.850Z,72.23
2022-12-18T07:21:26.022Z,72.33
2022-12-18T07:23:54.748Z,72.40
2022-12-18T07:26:24.032Z,72.56
2022-12-18T07:28:56.551Z,72.71
2022-12-18T07:31:26.281Z,73.03
2022-12-18T07:33:54.852Z,73.05
2022-12-18T07:36:25.292Z,73.01
2022-12-18T07:38:54.338Z,72.62
2022-12-18T07:41:23.529Z,72.49
2022-12-18T07:43:52.468Z,72.66
2022-12-18T07:46:21.003Z,72.63
2022-12-18T07:48:50.439Z,72.80
2022-12-18T07:51:20.098Z,72.86
2022-12-18T07:53:52.165Z,72.86
2022-12-18T07:56:27.672Z,73.10
2022-12-18T07:59:00.835Z,73.09
2022-12-18T08:01:32.927Z,72.44
2022-12-18T08:04:01.697Z,72.02
2022-12-18T08:06:30.212Z,71.67
2022-12-18T08:08:59.041Z,71.36
2022-12-18T08:11:29.885Z,71.08
2022-12-18T08:14:03.960Z,70.71
2022-12-18T08:16:33.873Z,70.60
2022-12-18T08:19:02.716Z,71.02
2022-12-18T08:21:35.675Z,71.00
2022-12-18T08:24:10.463Z,71.05
2022-12-18T08:26:38.998Z,71.30
2022-12-18T08:29:07.456Z,71.66
2022-12-18T08:31:44.841Z,71.82
2022-12-18T08:34:13.398Z,72.26
2022-12-18T08:36:41.918Z,72.28
2022-12-18T08:39:10.339Z,71.43
2022-12-18T08:41:38.768Z,71.40
2022-12-18T08:44:27.618Z,71.54
2022-12-18T08:46:56.314Z,71.06
2022-12-18T08:49:24.730Z,70.62
2022-12-18T08:51:58.467Z,70.50
2022-12-18T08:54:27.678Z,70.41
2022-12-18T08:56:56.232Z,70.32
2022-12-18T08:59:24.837Z,70.45
2022-12-18T09:01:55.394Z,70.74
2022-12-18T09:04:24.029Z,70.73
2022-12-18T09:06:52.505Z,70.81
2022-12-18T09:09:20.990Z,71.03
2022-12-18T09:11:49.473Z,71.20
2022-12-18T09:14:17.989Z,70.86
2022-12-18T09:16:46.510Z,71.25
2022-12-18T09:19:15.065Z,71.74
2022-12-18T09:21:48.019Z,71.74
2022-12-18T09:24:17.791Z,72.05
2022-12-18T09:26:47.312Z,72.67
2022-12-18T09:29:18.962Z,72.40
2022-12-18T09:31:48.486Z,72.04
2022-12-18T09:34:17.937Z,71.74
2022-12-18T09:36:46.453Z,71.58
2022-12-18T09:39:15.951Z,71.20
2022-12-18T09:41:55.205Z,71.13
2022-12-18T09:44:56.271Z,71.18
2022-12-18T09:47:35.824Z,71.09
2022-12-18T09:50:28.583Z,71.06
2022-12-18T09:53:02.653Z,71.32
2022-12-18T09:55:47.272Z,71.23
2022-12-18T09:58:45.629Z,70.95
2022-12-18T10:01:23.956Z,70.18
2022-12-18T10:03:53.673Z,70.49
2022-12-18T10:06:52.777Z,70.13
2022-12-18T10:09:35.968Z,70.38
2022-12-18T10:12:33.318Z,70.71
2022-12-18T10:15:30.606Z,71.31
2022-12-18T10:18:30.026Z,71.56
2022-12-18T10:21:08.881Z,71.87
2022-12-18T10:24:17.644Z,72.14
2022-12-18T10:26:46.346Z,72.06
2022-12-18T10:29:17.263Z,71.56
2022-12-18T10:31:45.695Z,71.32
2022-12-18T10:34:14.599Z,70.68
2022-12-18T10:36:43.963Z,69.90
2022-12-18T10:39:28.920Z,69.77
2022-12-18T10:42:20.250Z,70.02
2022-12-18T10:45:04.773Z,69.65
2022-12-18T10:47:35.894Z,69.50
2022-12-18T10:50:05.125Z,68.65
2022-12-18T10:52:33.709Z,68.81
2022-12-18T10:55:05.553Z,68.76
2022-12-18T10:57:38.135Z,68.55
2022-12-18T11:00:30.011Z,68.13
2022-12-18T11:02:59.072Z,67.91
2022-12-18T11:05:28.076Z,68.21
2022-12-18T11:07:57.723Z,67.98
2022-12-18T11:10:36.764Z,67.61
2022-12-18T11:13:19.954Z,66.85
2022-12-18T11:15:49.224Z,67.44
2022-12-18T11:18:26.611Z,67.43
2022-12-18T11:21:15.802Z,67.10
2022-12-18T11:23:53.840Z,67.13
2022-12-18T11:26:34.429Z,67.15
2022-12-18T11:29:28.422Z,67.14
2022-12-18T11:32:15.780Z,67.42
2022-12-18T11:34:57.380Z,67.31
2022-12-18T11:37:28.438Z,67.52
2022-12-18T11:40:09.396Z,67.48
2022-12-18T11:42:52.012Z,67.63
2022-12-18T11:45:33.102Z,67.36
2022-12-18T11:48:19.782Z,67.55
2022-12-18T11:50:52.902Z,68.07
2022-12-18T11:53:22.202Z,68.35
2022-12-18T11:56:27.838Z,68.39
2022-12-18T11:59:05.298Z,68.20
2022-12-18T12:01:47.030Z,68.34
2022-12-18T12:04:43.165Z,68.14
2022-12-18T12:07:40.082Z,66.60
2022-12-18T12:10:11.676Z,66.01
2022-12-18T12:13:11.933Z,66.10
2022-12-18T12:16:16.693Z,66.25
2022-12-18T12:18:57.921Z,66.74
2022-12-18T12:21:47.723Z,66.48
2022-12-18T12:24:34.113Z,67.12
2022-12-18T12:27:52.249Z,67.34
2022-12-18T12:30:39.724Z,66.88
2022-12-18T12:33:26.860Z,66.42
2022-12-18T12:36:24.429Z,66.09
2022-12-18T12:39:02.611Z,65.74
2022-12-18T12:41:53.463Z,65.93
2022-12-18T12:44:31.894Z,66.68
2022-12-18T12:47:12.929Z,67.06
2022-12-18T12:49:41.729Z,67.42
2022-12-18T12:52:32.300Z,67.93
2022-12-18T12:55:03.189Z,68.53
2022-12-18T12:57:42.933Z,68.55
2022-12-18T13:00:17.587Z,68.73
2022-12-18T13:03:07.844Z,68.08
2022-12-18T13:05:52.290Z,67.95
2022-12-18T13:08:30.962Z,68.17
2022-12-18T13:11:20.749Z,67.52
2022-12-18T13:13:56.782Z,66.78
2022-12-18T13:16:28.749Z,66.86
2022-12-18T13:19:00.010Z,66.66
2022-12-18T13:21:32.211Z,66.76
2022-12-18T13:24:32.333Z,66.66
2022-12-18T13:27:01.039Z,67.16
2022-12-18T13:29:47.041Z,66.95
2022-12-18T13:32:27.383Z,66.88
2022-12-18T13:35:23.717Z,67.09
2022-12-18T13:37:54.785Z,66.13
2022-12-18T13:40:43.619Z,66.08
2022-12-18T13:43:21.448Z,66.36
2022-12-18T13:46:42.805Z,66.38
2022-12-18T13:49:11.282Z,66.17
2022-12-18T13:51:50.488Z,66.22
2022-12-18T13:54:40.726Z,66.49
2022-12-18T13:57:39.722Z,65.83
2022-12-18T14:00:20.164Z,66.03
2022-12-18T14:02:50.266Z,66.01
2022-12-18T14:05:35.445Z,66.35
2022-12-18T14:08:17.781Z,66.21
2022-12-18T14:10:50.162Z,66.31
2022-12-18T14:13:43.057Z,66.83
2022-12-18T14:16:16.731Z,67.29
2022-12-18T14:18:49.373Z,67.20
2022-12-18T14:21:30.519Z,67.10
2022-12-18T14:24:22.940Z,67.65
2022-12-18T14:26:52.007Z,67.71
2022-12-18T14:29:25.042Z,67.66
2022-12-18T14:32:18.988Z,67.48
2022-12-18T14:34:55.179Z,68.01
2022-12-18T14:37:28.546Z,68.11
2022-12-18T14:40:11.061Z,68.52
2022-12-18T14:42:40.062Z,68.09
2022-12-18T14:45:41.119Z,68.02
2022-12-18T14:48:49.324Z,67.89
2022-12-18T14:51:26.444Z,67.24
2022-12-18T14:54:04.710Z,67.22
2022-12-18T14:56:43.748Z,67.24
2022-12-18T14:59:24.832Z,67.06
2022-12-18T15:02:27.835Z,67.37
2022-12-18T15:05:19.245Z,67.39
2022-12-18T15:07:56.643Z,67.23
2022-12-18T15:10:29.509Z,67.28
2022-12-18T15:12:58.053Z,67.63
2022-12-18T15:15:35.488Z,67.18
2022-12-18T15:18:18.157Z,66.90
2022-12-18T15:21:10.605Z,67.18
2022-12-18T15:23:45.368Z,67.37
2022-12-18T15:26:18.103Z,67.27
2022-12-18T15:28:53.639Z,67.16
2022-12-18T15:31:30.737Z,67.01
2022-12-18T15:34:00.539Z,66.95
2022-12-18T15:36:28.992Z,67.39
2022-12-18T15:39:05.051Z,67.61
2022-12-18T15:41:37.342Z,67.87
2022-12-18T15:44:26.647Z,67.39
2022-12-18T15:46:56.467Z,67.60
2022-12-18T15:49:24.794Z,67.64
2022-12-18T15:51:57.865Z,68.03
2022-12-18T15:55:13.515Z,67.51
2022-12-18T15:57:42.063Z,67.39
2022-12-18T16:00:13.744Z,67.57
2022-12-18T16:02:42.335Z,67.17
2022-12-18T16:05:18.195Z,66.74
2022-12-18T16:07:47.135Z,67.27
2022-12-18T16:10:16.358Z,67.13
2022-12-18T16:12:45.167Z,66.96
2022-12-18T16:15:22.459Z,67.07
2022-12-18T16:17:53.449Z,67.06
2022-12-18T16:20:23.614Z,66.98
2022-12-18T16:22:52.354Z,67.06
2022-12-18T16:25:26.762Z,67.04
2022-12-18T16:27:56.701Z,66.94
2022-12-18T16:30:34.031Z,67.05
2022-12-18T16:33:07.677Z,67.13
2022-12-18T16:35:38.323Z,67.21
2022-12-18T16:38:06.862Z,66.94
2022-12-18T16:40:55.314Z,67.17
2022-12-18T16:43:23.700Z,67.13
2022-12-18T16:45:52.184Z,67.11
2022-12-18T16:48:20.788Z,67.33
2022-12-18T16:50:49.210Z,67.51
2022-12-18T16:53:17.741Z,67.96
2022-12-18T16:55:55.873Z,67.80
2022-12-18T16:58:24.834Z,67.94
2022-12-18T17:00:53.308Z,67.73
2022-12-18T17:03:21.947Z,67.49
2022-12-18T17:06:03.378Z,67.51
2022-12-18T17:08:32.693Z,67.72
2022-12-18T17:11:08.033Z,67.95
2022-12-18T17:13:36.609Z,67.97
2022-12-18T17:16:09.850Z,68.02
2022-12-18T17:18:38.394Z,68.25
2022-12-18T17:21:09.702Z,68.39
2022-12-18T17:23:38.444Z,68.56
2022-12-18T17:26:08.537Z,68.84
2022-12-18T17:28:39.361Z,69.06
2022-12-18T17:31:21.225Z,69.10
2022-12-18T17:33:50.062Z,69.30
2022-12-18T17:36:18.614Z,69.24
2022-12-18T17:38:56.333Z,69.04
2022-12-18T17:41:26.238Z,68.85
2022-12-18T17:43:57.801Z,69.05
2022-12-18T17:46:28.591Z,69.33
2022-12-18T17:48:59.542Z,69.32
2022-12-18T17:51:28.941Z,69.62
2022-12-18T17:53:57.685Z,68.72
2022-12-18T17:56:27.180Z,68.53
2022-12-18T17:58:55.650Z,68.63
2022-12-18T18:01:26.115Z,68.67
2022-12-18T18:03:58.221Z,68.77
2022-12-18T18:06:27.128Z,68.86
2022-12-18T18:08:55.677Z,68.78
2022-12-18T18:11:44.169Z,68.65
2022-12-18T18:14:19.573Z,68.43
2022-12-18T18:16:52.191Z,68.05
2022-12-18T18:19:23.787Z,68.07
2022-12-18T18:22:30.942Z,68.36
2022-12-18T18:24:43.961Z,68.21
2022-12-18T18:27:12.833Z,68.25
2022-12-18T18:29:41.565Z,68.36
2022-12-18T18:32:10.119Z,68.57
2022-12-18T18:34:42.730Z,68.57
2022-12-18T18:37:12.157Z,68.47
2022-12-18T18:39:40.805Z,68.53
2022-12-18T18:42:09.605Z,68.11
2022-12-18T18:44:38.065Z,67.99
2022-12-18T18:47:09.451Z,67.83
2022-12-18T18:49:38.287Z,67.99
2022-12-18T18:52:07.645Z,68.05
2022-12-18T18:54:36.104Z,68.20
2022-12-18T18:57:20.387Z,68.05
2022-12-18T18:59:49.732Z,68.20
2022-12-18T19:02:18.526Z,68.17
2022-12-18T19:04:47.383Z,68.20
2022-12-18T19:07:20.376Z,68.23
2022-12-18T19:10:03.943Z,68.18
2022-12-18T19:12:53.334Z,68.30
2022-12-18T19:15:23.509Z,68.46
2022-12-18T19:17:53.052Z,68.19
2022-12-18T19:20:21.668Z,68.08
2022-12-18T19:22:55.491Z,67.92
2022-12-18T19:25:40.260Z,67.93
2022-12-18T19:28:19.263Z,68.00
2022-12-18T19:30:57.903Z,68.35
2022-12-18T19:33:45.738Z,68.75
2022-12-18T19:36:22.152Z,68.66
2022-12-18T19:38:52.940Z,68.75
2022-12-18T19:41:22.593Z,69.15
2022-12-18T19:43:51.624Z,69.33
2022-12-18T19:46:23.515Z,69.53
2022-12-18T19:48:52.680Z,69.86
2022-12-18T19:51:25.440Z,69.53
2022-12-18T19:53:58.971Z,69.51
2022-12-18T19:56:32.469Z,69.48
2022-12-18T19:59:02.448Z,69.47
2022-12-18T20:01:31.987Z,69.67
2022-12-18T20:04:01.730Z,69.79
2022-12-18T20:06:33.830Z,69.63
2022-12-18T20:09:06.833Z,69.96
2022-12-18T20:11:41.651Z,70.18
2022-12-18T20:14:12.694Z,70.23
2022-12-18T20:16:41.891Z,70.61
2022-12-18T20:19:13.021Z,70.24
2022-12-18T20:21:42.506Z,70.08
2022-12-18T20:24:10.952Z,69.72
2022-12-18T20:26:40.719Z,69.77
2022-12-18T20:29:09.095Z,69.82
2022-12-18T20:31:37.720Z,69.90
2022-12-18T20:34:07.158Z,70.01
2022-12-18T20:36:37.628Z,69.97
2022-12-18T20:39:08.732Z,70.33
2022-12-18T20:41:39.314Z,70.71
2022-12-18T20:44:23.431Z,70.65
2022-12-18T20:46:56.707Z,70.87
2022-12-18T20:49:26.905Z,70.79
2022-12-18T20:51:57.918Z,70.91
2022-12-18T20:54:27.793Z,71.00
2022-12-18T20:56:57.121Z,70.93
2022-12-18T20:59:26.264Z,70.80
2022-12-18T21:01:55.219Z,70.75
2022-12-18T21:04:24.183Z,70.37
2022-12-18T21:06:57.793Z,70.76
2022-12-18T21:09:37.487Z,70.62
2022-12-18T21:12:40.349Z,70.32
2022-12-18T21:15:13.890Z,70.29
2022-12-18T21:17:44.774Z,69.93
2022-12-18T21:20:17.856Z,69.92
2022-12-18T21:22:47.435Z,69.94
2022-12-18T21:25:16.300Z,68.89
2022-12-18T21:27:44.713Z,68.72
2022-12-18T21:30:15.268Z,67.86
2022-12-18T21:32:44.192Z,66.67
2022-12-18T21:35:12.830Z,66.34
2022-12-18T21:37:41.286Z,65.57
2022-12-18T21:40:10.440Z,64.17
2022-12-18T21:42:57.733Z,63.55
2022-12-18T21:45:26.339Z,64.13
2022-12-18T21:47:54.749Z,64.31
2022-12-18T21:50:23.377Z,64.85
2022-12-18T21:52:51.804Z,65.19
2022-12-18T21:55:20.236Z,64.78
2022-12-18T21:57:48.686Z,65.03
2022-12-18T22:00:19.127Z,64.79
2022-12-18T22:03:01.131Z,65.35
2022-12-18T22:05:38.781Z,64.94
2022-12-18T22:08:07.750Z,64.77
2022-12-18T22:10:37.054Z,64.78
2022-12-18T22:13:07.509Z,65.20
2022-12-18T22:15:36.031Z,65.34
2022-12-18T22:18:04.633Z,65.99
2022-12-18T22:20:33.314Z,66.11
2022-12-18T22:23:04.227Z,66.38
2022-12-18T22:25:36.291Z,66.51
2022-12-18T22:28:26.872Z,66.59
2022-12-18T22:30:59.723Z,66.72
2022-12-18T22:33:28.727Z,66.09
2022-12-18T22:35:57.446Z,66.33
2022-12-18T22:38:26.118Z,66.34
2022-12-18T22:40:55.297Z,66.73
2022-12-18T22:43:23.801Z,66.16
2022-12-18T22:45:52.282Z,65.30
2022-12-18T22:48:20.908Z,65.24
2022-12-18T22:50:50.171Z,65.57
2022-12-18T22:53:21.640Z,65.59
2022-12-18T22:55:50.050Z,65.66
2022-12-18T22:58:18.601Z,65.74
2022-12-18T23:00:47.005Z,66.12
2022-12-18T23:03:15.588Z,66.31
2022-12-18T23:05:44.217Z,66.57
2022-12-18T23:08:12.626Z,66.92
2022-12-18T23:10:41.215Z,66.99
2022-12-18T23:13:09.561Z,67.19
2022-12-18T23:15:43.152Z,67.30
2022-12-18T23:18:11.893Z,67.05
2022-12-18T23:20:40.242Z,67.06
2022-12-18T23:23:10.140Z,66.96
2022-12-18T23:25:38.598Z,66.95
2022-12-18T23:28:07.247Z,66.65
2022-12-18T23:30:35.824Z,66.45
2022-12-18T23:33:04.448Z,66.33
2022-12-18T23:35:32.997Z,65.95
2022-12-18T23:38:01.549Z,65.76
2022-12-18T23:40:30.244Z,65.99
2022-12-18T23:43:00.348Z,65.78
2022-12-18T23:45:29.082Z,66.05
2022-12-18T23:47:57.523Z,66.64
2022-12-18T23:50:29.612Z,66.70
2022-12-18T23:53:02.536Z,66.54
2022-12-18T23:55:40.460Z,66.41
2022-12-18T23:58:20.021Z,65.61
